Heart's Content, Canada
Current Conditions -  °F | °C
As of 11:00 PM on Friday 19 Dec 2014 (Local Time) from CYYT Reporting Station
Overcast Overcast  
Wind Chill: 26°   Ceiling: 1800
Heat Index: 36°   Visibility: 15mi
Dew Point: 32°   Wind: 15mph
Humidity: 87%   Direction: 260°W
Pressure: 29.69"   Gusts: 23mph
Location:  47.87°N, 53.37°W
Report Text: CYYT 200200Z 26013G20KT 15SM OVC018 02/00 A2969 RMK SC8 SLP060
Loading
Personal Weather Stations






























Interactive Weather Map New forecast layout! Learn more

10-Day Weather Forecast

Advertisements
Track Severe Weather on mobile